Time;durP1;ratioP1;P1;durP2;ratioP2;P2;SDS_P1;SDS_P2;PMS_P1;PMS_P2;Temp;Humidity;BMP_temperature;BMP_pressure;BME280_temperature;BME280_humidity;BME280_pressure;Samples;Min_cycle;Max_cycle;Signal;HPM_P1;HPM_P2
2022/12/24 00:01:40;;;;;;;31.80;5.68;;;;;;;;;;6102838;19;20019;-72
2022/12/24 00:03:44;;;;;;;26.13;5.50;;;;;;;;;;6106278;19;20006;-71
2022/12/24 00:05:49;;;;;;;35.42;7.03;;;;;;;;;;6104675;19;20011;-71
2022/12/24 00:07:54;;;;;;;34.30;5.95;;;;;;;;;;6104744;19;20082;-72
2022/12/24 00:09:59;;;;;;;35.42;5.65;;;;;;;;;;6104898;19;20117;-72
2022/12/24 00:12:07;;;;;;;27.88;5.82;;;;;;;;;;6104350;19;20098;-72
2022/12/24 00:14:12;;;;;;;30.70;5.97;;;;;;;;;;6107504;19;20015;-70
2022/12/24 00:16:17;;;;;;;22.23;4.65;;;;;;;;;;6111083;19;20504;-71
2022/12/24 00:18:22;;;;;;;27.17;5.78;;;;;;;;;;6110951;19;20011;-72
2022/12/24 00:20:27;;;;;;;30.85;5.47;;;;;;;;;;6111140;19;20007;-71
2022/12/24 00:22:34;;;;;;;26.05;5.10;;;;;;;;;;6110018;19;20042;-71
2022/12/24 00:24:39;;;;;;;29.05;5.30;;;;;;;;;;6113491;19;20051;-72
2022/12/24 00:26:46;;;;;;;25.30;6.20;;;;;;;;;;6112925;19;20006;-72
2022/12/24 00:28:54;;;;;;;29.73;5.45;;;;;;;;;;6109967;19;20394;-71
2022/12/24 00:30:59;;;;;;;25.73;5.95;;;;;;;;;;6111590;19;20010;-72
2022/12/24 00:33:03;;;;;;;27.60;5.38;;;;;;;;;;6108217;19;20706;-71
2022/12/24 00:35:09;;;;;;;20.48;4.85;;;;;;;;;;6111820;19;20124;-71
2022/12/24 00:37:14;;;;;;;38.15;6.50;;;;;;;;;;6111015;19;20010;-71
2022/12/24 00:39:19;;;;;;;30.23;6.43;;;;;;;;;;6110407;19;20009;-71
2022/12/24 00:41:27;;;;;;;28.75;5.32;;;;;;;;;;6111187;19;20036;-70
2022/12/24 00:43:33;;;;;;;36.28;6.55;;;;;;;;;;6109711;19;20027;-71
2022/12/24 00:45:41;;;;;;;27.48;5.38;;;;;;;;;;6109525;19;20014;-71
2022/12/24 00:47:46;;;;;;;33.67;5.78;;;;;;;;;;6108721;19;20015;-71
2022/12/24 00:49:51;;;;;;;29.92;6.05;;;;;;;;;;6111654;19;20039;-71
2022/12/24 00:51:56;;;;;;;34.67;5.47;;;;;;;;;;6109683;19;20010;-71
2022/12/24 00:54:01;;;;;;;21.50;4.43;;;;;;;;;;6105844;19;20357;-71
2022/12/24 00:56:07;;;;;;;26.20;4.85;;;;;;;;;;6106885;19;20018;-72
2022/12/24 00:58:12;;;;;;;23.25;4.93;;;;;;;;;;6109273;19;20011;-71
2022/12/24 01:00:17;;;;;;;28.83;5.45;;;;;;;;;;6110337;19;20014;-71
2022/12/24 01:02:25;;;;;;;32.15;5.88;;;;;;;;;;6109021;19;20554;-71
2022/12/24 01:06:53;;;;;;;19.58;4.82;;;;;;;;;;6107428;19;20010;-70
2022/12/24 01:08:58;;;;;;;25.30;5.68;;;;;;;;;;6108361;19;20361;-71
2022/12/24 01:11:03;;;;;;;28.25;4.90;;;;;;;;;;6110348;19;20010;-71
2022/12/24 01:13:07;;;;;;;20.80;4.65;;;;;;;;;;6110671;19;20015;-70
2022/12/24 01:15:15;;;;;;;33.00;5.28;;;;;;;;;;6109830;19;20454;-70
2022/12/24 01:17:19;;;;;;;20.52;5.20;;;;;;;;;;6109946;19;20359;-70
2022/12/24 01:19:27;;;;;;;38.55;6.38;;;;;;;;;;6109258;19;20078;-70
2022/12/24 01:21:33;;;;;;;21.73;4.78;;;;;;;;;;6110046;19;20535;-70
2022/12/24 01:23:38;;;;;;;20.02;4.72;;;;;;;;;;6108948;19;20134;-70
2022/12/24 01:25:43;;;;;;;31.20;5.85;;;;;;;;;;6109825;19;20014;-70
2022/12/24 01:27:48;;;;;;;20.60;4.38;;;;;;;;;;6108539;19;20007;-70
2022/12/24 01:29:52;;;;;;;31.60;5.30;;;;;;;;;;6109756;19;20026;-70
2022/12/24 01:31:57;;;;;;;23.77;4.82;;;;;;;;;;6109742;19;20491;-70
2022/12/24 01:34:02;;;;;;;29.00;6.25;;;;;;;;;;6109638;19;20022;-71
2022/12/24 01:36:10;;;;;;;32.15;4.70;;;;;;;;;;6106612;19;20026;-71
2022/12/24 01:38:16;;;;;;;28.67;7.10;;;;;;;;;;6110186;19;20039;-71
2022/12/24 01:44:57;;;;;;;20.70;5.32;;;;;;;;;;6109759;19;20499;-71
2022/12/24 01:47:07;;;;;;;40.10;6.10;;;;;;;;;;6106332;19;20349;-71
2022/12/24 01:49:13;;;;;;;24.90;5.97;;;;;;;;;;6107586;19;20443;-71
2022/12/24 01:51:26;;;;;;;23.33;4.30;;;;;;;;;;6109446;19;20022;-70
2022/12/24 01:53:31;;;;;;;;;;;;;;;;;;6100037;19;20038;-70
2022/12/24 01:55:35;;;;;;;24.50;5.28;;;;;;;;;;6107802;19;19915;-70
2022/12/24 01:57:43;;;;;;;27.27;5.32;;;;;;;;;;6106978;19;20494;-71
2022/12/24 01:59:52;;;;;;;20.77;4.35;;;;;;;;;;6110518;19;20110;-70
2022/12/24 02:01:57;;;;;;;22.67;5.45;;;;;;;;;;6105329;19;20357;-71
2022/12/24 02:04:03;;;;;;;23.67;4.72;;;;;;;;;;6105153;19;20425;-71
2022/12/24 02:06:11;;;;;;;22.02;4.30;;;;;;;;;;6102631;19;20024;-70
2022/12/24 02:08:19;;;;;;;19.73;4.35;;;;;;;;;;6106563;19;20041;-70
2022/12/24 02:10:25;;;;;;;22.52;4.28;;;;;;;;;;6106664;19;20520;-70
2022/12/24 02:12:32;;;;;;;21.60;4.32;;;;;;;;;;6105159;19;20006;-71
2022/12/24 02:14:37;;;;;;;25.88;4.57;;;;;;;;;;6106743;19;20011;-71
2022/12/24 02:16:57;;;;;;;21.00;4.45;;;;;;;;;;6105821;19;20291;-71
2022/12/24 02:19:12;;;;;;;21.13;4.32;;;;;;;;;;6106064;19;20031;-71
2022/12/24 02:21:25;;;;;;;25.42;4.53;;;;;;;;;;6104215;19;20479;-70
2022/12/24 02:24:01;;;;;;;22.90;3.75;;;;;;;;;;6106554;19;20011;-70
2022/12/24 02:26:20;;;;;;;21.08;3.45;;;;;;;;;;6100244;19;20341;-69
2022/12/24 02:28:38;;;;;;;31.55;6.07;;;;;;;;;;6108288;19;20026;-70
2022/12/24 02:30:47;;;;;;;28.08;5.50;;;;;;;;;;6107995;19;20475;-70
2022/12/24 02:33:11;;;;;;;18.67;4.43;;;;;;;;;;6109322;19;20046;-71
2022/12/24 02:35:18;;;;;;;26.10;5.05;;;;;;;;;;6107052;19;20006;-71
2022/12/24 02:37:27;;;;;;;28.70;5.93;;;;;;;;;;6108636;19;20462;-70
2022/12/24 02:39:36;;;;;;;40.65;5.70;;;;;;;;;;6106975;19;20463;-70
2022/12/24 02:44:01;;;;;;;29.30;4.97;;;;;;;;;;6108391;19;20345;-70
2022/12/24 02:46:11;;;;;;;27.02;4.60;;;;;;;;;;6104175;19;20471;-70
2022/12/24 02:48:19;;;;;;;27.58;4.72;;;;;;;;;;6108627;19;20540;-70
2022/12/24 02:50:25;;;;;;;32.85;5.53;;;;;;;;;;6108148;19;20018;-70
2022/12/24 02:52:33;;;;;;;20.35;4.82;;;;;;;;;;6104801;19;20022;-70
2022/12/24 02:54:37;;;;;;;27.60;5.35;;;;;;;;;;6105500;19;20014;-70
2022/12/24 02:57:02;;;;;;;25.55;5.18;;;;;;;;;;6106549;19;20021;-70
2022/12/24 02:59:25;;;;;;;26.38;6.57;;;;;;;;;;6106462;19;20014;-70
2022/12/24 03:01:43;;;;;;;28.55;5.53;;;;;;;;;;6100395;19;20074;-71
2022/12/24 03:03:55;;;;;;;33.05;4.75;;;;;;;;;;6102520;19;20472;-71
2022/12/24 03:06:05;;;;;;;30.45;5.28;;;;;;;;;;6104891;19;20010;-71
2022/12/24 03:08:16;;;;;;;24.05;5.97;;;;;;;;;;6100103;19;20019;-71
2022/12/24 03:10:24;;;;;;;28.25;5.50;;;;;;;;;;6104796;19;20033;-70
2022/12/24 03:12:34;;;;;;;22.00;4.65;;;;;;;;;;6102495;19;20530;-70
2022/12/24 03:14:40;;;;;;;34.00;6.28;;;;;;;;;;6105135;19;20010;-70
2022/12/24 03:16:48;;;;;;;25.73;4.65;;;;;;;;;;6105547;19;20412;-71
2022/12/24 03:18:54;;;;;;;30.55;6.18;;;;;;;;;;6104224;19;20082;-72
2022/12/24 03:21:03;;;;;;;31.73;6.50;;;;;;;;;;6103597;19;20007;-70
2022/12/24 03:23:08;;;;;;;29.55;5.40;;;;;;;;;;6104053;19;20357;-70
2022/12/24 03:25:13;;;;;;;39.13;7.10;;;;;;;;;;6104476;19;20017;-70
2022/12/24 03:27:18;;;;;;;28.83;6.15;;;;;;;;;;6105082;19;20014;-71
2022/12/24 03:29:22;;;;;;;26.48;5.82;;;;;;;;;;6102982;19;20059;-71
2022/12/24 03:31:27;;;;;;;31.10;6.53;;;;;;;;;;6103511;19;20034;-71
2022/12/24 03:33:34;;;;;;;24.70;5.18;;;;;;;;;;6104082;19;20003;-72
2022/12/24 03:35:39;;;;;;;33.70;7.70;;;;;;;;;;6103853;19;20011;-72
2022/12/24 03:37:44;;;;;;;29.70;4.90;;;;;;;;;;6104312;19;20010;-72
2022/12/24 03:39:49;;;;;;;30.25;5.28;;;;;;;;;;6105209;19;20024;-72
2022/12/24 03:41:53;;;;;;;30.33;6.85;;;;;;;;;;6104030;19;20038;-70
2022/12/24 03:43:58;;;;;;;28.65;5.85;;;;;;;;;;6101598;19;20018;-70
2022/12/24 03:46:07;;;;;;;35.15;5.85;;;;;;;;;;6103722;19;20505;-70
2022/12/24 03:48:12;;;;;;;25.70;6.80;;;;;;;;;;6099411;19;20015;-71
2022/12/24 03:50:20;;;;;;;24.63;4.93;;;;;;;;;;6103580;19;20015;-70
2022/12/24 03:52:25;;;;;;;22.38;5.35;;;;;;;;;;6101348;19;20022;-70
2022/12/24 03:54:29;;;;;;;39.70;7.00;;;;;;;;;;6103332;19;20011;-70
2022/12/24 03:56:35;;;;;;;26.27;4.78;;;;;;;;;;6101749;19;20034;-71
2022/12/24 03:58:40;;;;;;;29.13;6.22;;;;;;;;;;6105561;19;20538;-70
2022/12/24 04:00:45;;;;;;;35.17;6.47;;;;;;;;;;6102032;19;20470;-70
2022/12/24 04:02:50;;;;;;;24.42;4.70;;;;;;;;;;6103652;19;20014;-71
2022/12/24 04:04:55;;;;;;;21.33;5.40;;;;;;;;;;6101744;19;20639;-70
2022/12/24 04:07:02;;;;;;;27.58;5.10;;;;;;;;;;6101878;19;20014;-70
2022/12/24 04:09:07;;;;;;;29.90;5.10;;;;;;;;;;6104006;19;20880;-70
2022/12/24 04:11:15;;;;;;;26.13;4.55;;;;;;;;;;6105307;19;20007;-70
2022/12/24 04:13:20;;;;;;;35.95;5.10;;;;;;;;;;6103598;19;20032;-70
2022/12/24 04:15:25;;;;;;;24.08;5.70;;;;;;;;;;6102871;19;20002;-70
2022/12/24 04:17:30;;;;;;;23.35;5.75;;;;;;;;;;6103276;19;20013;-72
2022/12/24 04:19:35;;;;;;;21.67;4.68;;;;;;;;;;6102656;19;20526;-73
2022/12/24 04:21:40;;;;;;;18.50;4.32;;;;;;;;;;6102157;19;20011;-72
2022/12/24 04:23:47;;;;;;;18.67;4.13;;;;;;;;;;6104700;19;20011;-73
2022/12/24 04:25:52;;;;;;;23.85;4.43;;;;;;;;;;6102595;19;20414;-72
2022/12/24 04:27:57;;;;;;;19.00;5.60;;;;;;;;;;6100881;19;20006;-70
2022/12/24 04:30:02;;;;;;;19.77;3.40;;;;;;;;;;6101077;19;20009;-70
2022/12/24 04:32:07;;;;;;;23.58;4.40;;;;;;;;;;6101016;19;20467;-69
2022/12/24 04:34:12;;;;;;;24.15;5.18;;;;;;;;;;6103406;19;20066;-70
2022/12/24 04:36:18;;;;;;;24.98;4.70;;;;;;;;;;6101861;19;20010;-71
2022/12/24 04:38:23;;;;;;;28.67;5.95;;;;;;;;;;6102410;19;20344;-69
2022/12/24 04:40:30;;;;;;;23.08;6.00;;;;;;;;;;6103832;19;20022;-69
2022/12/24 04:42:35;;;;;;;24.48;5.28;;;;;;;;;;6102894;19;20050;-69
2022/12/24 04:44:40;;;;;;;27.02;6.05;;;;;;;;;;6102733;19;20017;-71
2022/12/24 04:46:45;;;;;;;19.77;5.22;;;;;;;;;;6102745;19;20013;-71
2022/12/24 04:48:51;;;;;;;28.55;5.20;;;;;;;;;;6101229;19;19999;-71
2022/12/24 04:50:56;;;;;;;19.88;5.45;;;;;;;;;;6100619;19;20497;-69
2022/12/24 04:53:01;;;;;;;26.52;4.78;;;;;;;;;;6099664;19;20028;-69
2022/12/24 04:55:06;;;;;;;21.25;4.80;;;;;;;;;;6103221;19;20013;-71
2022/12/24 04:57:13;;;;;;;37.88;6.78;;;;;;;;;;6100899;19;20010;-71
2022/12/24 04:59:18;;;;;;;38.05;6.45;;;;;;;;;;6105311;19;20062;-73
2022/12/24 05:01:25;;;;;;;30.60;7.35;;;;;;;;;;6103385;19;20003;-71
2022/12/24 05:03:30;;;;;;;27.25;5.53;;;;;;;;;;6108578;19;20010;-71
2022/12/24 05:05:35;;;;;;;25.92;6.03;;;;;;;;;;6108095;19;20010;-71
2022/12/24 05:07:40;;;;;;;29.20;6.40;;;;;;;;;;6107842;19;20555;-71
2022/12/24 05:09:45;;;;;;;30.02;6.00;;;;;;;;;;6108933;19;20007;-71
2022/12/24 05:11:49;;;;;;;29.42;5.78;;;;;;;;;;6107984;19;20006;-71
2022/12/24 05:13:57;;;;;;;29.13;6.10;;;;;;;;;;6106532;19;20097;-71
2022/12/24 05:16:01;;;;;;;38.92;6.78;;;;;;;;;;6108063;19;20010;-71
2022/12/24 05:18:06;;;;;;;28.17;5.60;;;;;;;;;;6103799;19;20074;-70
2022/12/24 05:20:11;;;;;;;23.88;6.07;;;;;;;;;;6107799;19;20596;-70
2022/12/24 05:26:52;;;;;;;28.88;6.35;;;;;;;;;;6106427;19;20015;-71
2022/12/24 05:29:01;;;;;;;25.33;5.90;;;;;;;;;;6106897;19;20095;-70
2022/12/24 05:31:06;;;;;;;25.23;6.00;;;;;;;;;;6108538;19;20014;-70
2022/12/24 05:33:11;;;;;;;30.38;5.72;;;;;;;;;;6109428;19;20128;-70
2022/12/24 05:35:16;;;;;;;40.75;5.47;;;;;;;;;;6109525;19;20360;-71
2022/12/24 05:37:21;;;;;;;29.02;5.32;;;;;;;;;;6107953;19;20031;-70
2022/12/24 05:39:26;;;;;;;32.33;6.13;;;;;;;;;;6107689;19;20571;-71
2022/12/24 05:41:30;;;;;;;27.55;5.85;;;;;;;;;;6106540;19;20254;-71
2022/12/24 05:43:35;;;;;;;29.63;5.50;;;;;;;;;;6106609;19;20018;-69
2022/12/24 05:45:42;;;;;;;26.13;6.65;;;;;;;;;;6104756;19;20006;-71
2022/12/24 05:47:47;;;;;;;26.40;5.80;;;;;;;;;;6105317;19;20042;-69
2022/12/24 05:49:52;;;;;;;30.63;5.25;;;;;;;;;;6103679;19;20025;-71
2022/12/24 05:51:57;;;;;;;35.08;5.72;;;;;;;;;;6105783;19;20020;-70
2022/12/24 05:54:02;;;;;;;29.02;5.75;;;;;;;;;;6104436;19;20006;-71
2022/12/24 05:56:08;;;;;;;36.30;6.28;;;;;;;;;;6102235;19;20326;-71
2022/12/24 05:58:13;;;;;;;33.25;6.10;;;;;;;;;;6107315;19;20007;-68
2022/12/24 06:00:19;;;;;;;40.97;7.50;;;;;;;;;;6105167;19;20007;-68
2022/12/24 06:02:27;;;;;;;36.17;6.30;;;;;;;;;;6107941;19;20065;-68
2022/12/24 06:04:32;;;;;;;28.85;5.88;;;;;;;;;;6105640;19;20011;-68
2022/12/24 06:06:37;;;;;;;27.63;6.95;;;;;;;;;;6106905;19;20010;-68
2022/12/24 06:08:43;;;;;;;34.50;6.70;;;;;;;;;;6105238;19;20011;-70
2022/12/24 06:10:48;;;;;;;40.38;6.90;;;;;;;;;;6103040;19;20127;-69
2022/12/24 06:12:53;;;;;;;35.65;6.60;;;;;;;;;;6106539;19;20515;-68
2022/12/24 06:14:57;;;;;;;40.50;6.47;;;;;;;;;;6106633;19;20013;-70
2022/12/24 06:17:02;;;;;;;33.90;7.72;;;;;;;;;;6106592;19;20446;-70
2022/12/24 06:19:10;;;;;;;29.88;6.63;;;;;;;;;;6106584;19;20007;-70
2022/12/24 06:21:15;;;;;;;32.75;6.20;;;;;;;;;;6104955;19;20024;-70
2022/12/24 06:23:20;;;;;;;44.22;7.90;;;;;;;;;;6104630;19;20011;-70
2022/12/24 06:25:25;;;;;;;30.58;6.47;;;;;;;;;;6105927;19;20015;-70
2022/12/24 06:27:29;;;;;;;39.08;6.53;;;;;;;;;;6104843;19;20006;-70
2022/12/24 06:29:37;;;;;;;46.58;6.60;;;;;;;;;;6104346;19;20489;-70
2022/12/24 06:31:41;;;;;;;33.83;5.55;;;;;;;;;;6106853;19;20454;-70
2022/12/24 06:33:47;;;;;;;30.88;7.03;;;;;;;;;;6106663;19;20012;-70
2022/12/24 06:35:55;;;;;;;48.03;8.50;;;;;;;;;;6107611;19;20011;-70
2022/12/24 06:38:00;;;;;;;30.48;6.57;;;;;;;;;;6107146;19;20006;-69
2022/12/24 06:40:05;;;;;;;29.35;6.35;;;;;;;;;;6108365;19;20014;-69
2022/12/24 06:42:09;;;;;;;45.22;8.25;;;;;;;;;;6105298;19;20026;-69
2022/12/24 06:44:14;;;;;;;37.53;5.90;;;;;;;;;;6108466;19;20011;-70
2022/12/24 06:46:19;;;;;;;41.58;7.53;;;;;;;;;;6104334;19;20014;-70
2022/12/24 06:48:25;;;;;;;23.23;6.38;;;;;;;;;;6105192;19;20023;-70
2022/12/24 06:50:30;;;;;;;28.27;6.88;;;;;;;;;;6103183;19;20038;-70
2022/12/24 06:52:38;;;;;;;33.38;7.38;;;;;;;;;;6104328;19;20018;-70
2022/12/24 06:54:42;;;;;;;34.85;5.70;;;;;;;;;;6105201;19;20034;-70
2022/12/24 06:56:47;;;;;;;41.10;6.78;;;;;;;;;;6104566;19;20014;-70
2022/12/24 06:58:51;;;;;;;33.80;7.70;;;;;;;;;;6105206;19;20045;-70
2022/12/24 07:00:56;;;;;;;27.85;6.30;;;;;;;;;;6100332;19;20018;-70
2022/12/24 07:03:01;;;;;;;45.53;7.57;;;;;;;;;;6106830;19;20340;-70
2022/12/24 07:05:07;;;;;;;35.33;8.25;;;;;;;;;;6105388;19;20042;-70
2022/12/24 07:07:11;;;;;;;35.55;6.10;;;;;;;;;;6105304;19;20053;-68
2022/12/24 07:09:19;;;;;;;28.27;6.35;;;;;;;;;;6103786;19;20791;-69
2022/12/24 07:11:24;;;;;;;37.83;7.28;;;;;;;;;;6106121;19;20014;-69
2022/12/24 07:13:30;;;;;;;34.92;9.35;;;;;;;;;;6102432;19;20011;-68
2022/12/24 07:15:35;;;;;;;29.70;6.93;;;;;;;;;;6103304;19;20471;-69
2022/12/24 07:17:39;;;;;;;36.08;6.85;;;;;;;;;;6103944;19;20006;-69
2022/12/24 07:19:45;;;;;;;34.88;9.38;;;;;;;;;;6104199;19;20345;-71
2022/12/24 07:21:50;;;;;;;39.13;7.22;;;;;;;;;;6103034;19;20011;-71
2022/12/24 07:23:54;;;;;;;29.80;5.40;;;;;;;;;;6103703;19;20222;-70
2022/12/24 07:26:07;;;;;;;37.42;7.80;;;;;;;;;;6103513;19;20014;-71
2022/12/24 07:28:12;;;;;;;27.15;5.95;;;;;;;;;;6099745;19;20518;-70
2022/12/24 07:30:17;;;;;;;37.67;6.22;;;;;;;;;;6104383;19;20795;-70
2022/12/24 07:32:22;;;;;;;40.03;6.68;;;;;;;;;;6105344;19;20014;-69
2022/12/24 07:34:27;;;;;;;32.75;6.18;;;;;;;;;;6102581;19;20363;-70
2022/12/24 07:36:31;;;;;;;34.92;6.72;;;;;;;;;;6104328;19;20022;-69
2022/12/24 07:38:37;;;;;;;43.10;6.47;;;;;;;;;;6104655;19;20467;-69
2022/12/24 07:40:41;;;;;;;27.35;5.57;;;;;;;;;;6104009;19;20011;-69
2022/12/24 07:42:49;;;;;;;28.95;5.43;;;;;;;;;;6103617;19;20022;-69
2022/12/24 07:44:54;;;;;;;35.85;7.03;;;;;;;;;;6104033;19;20049;-69
2022/12/24 07:46:59;;;;;;;35.53;6.78;;;;;;;;;;6103283;19;20010;-70
2022/12/24 07:49:03;;;;;;;30.15;6.63;;;;;;;;;;6103170;19;20427;-70
2022/12/24 07:51:08;;;;;;;47.67;7.72;;;;;;;;;;6101966;19;20506;-70
2022/12/24 07:53:13;;;;;;;26.13;5.75;;;;;;;;;;6099795;19;20006;-69
2022/12/24 07:55:18;;;;;;;30.88;6.03;;;;;;;;;;6104940;19;20014;-69
2022/12/24 07:57:23;;;;;;;35.00;6.55;;;;;;;;;;6101276;19;20077;-70
2022/12/24 07:59:30;;;;;;;35.63;6.70;;;;;;;;;;6102299;19;20467;-70
2022/12/24 08:01:35;;;;;;;36.72;7.47;;;;;;;;;;6101396;19;20019;-70
2022/12/24 08:03:41;;;;;;;33.10;6.95;;;;;;;;;;6105180;19;20284;-71
2022/12/24 08:05:46;;;;;;;48.17;7.68;;;;;;;;;;6106637;19;20098;-70
2022/12/24 08:07:50;;;;;;;37.97;7.32;;;;;;;;;;6104921;19;20011;-70
2022/12/24 08:09:55;;;;;;;36.00;6.60;;;;;;;;;;6106445;19;20007;-69
2022/12/24 08:12:01;;;;;;;29.95;7.85;;;;;;;;;;6105725;19;20091;-70
2022/12/24 08:14:06;;;;;;;56.65;8.18;;;;;;;;;;6100674;19;20558;-70
2022/12/24 08:16:13;;;;;;;40.50;8.43;;;;;;;;;;6102258;19;20010;-69
2022/12/24 08:18:18;;;;;;;38.88;7.57;;;;;;;;;;6100940;19;20029;-70
2022/12/24 08:20:23;;;;;;;30.63;7.63;;;;;;;;;;6103767;19;20464;-69
2022/12/24 08:22:28;;;;;;;38.50;7.85;;;;;;;;;;6102500;19;20282;-69
2022/12/24 08:24:33;;;;;;;43.53;7.72;;;;;;;;;;6101378;19;20007;-70
2022/12/24 08:26:38;;;;;;;34.50;6.63;;;;;;;;;;6102132;19;20459;-69
2022/12/24 08:28:43;;;;;;;31.92;7.57;;;;;;;;;;6100163;19;20007;-70
2022/12/24 08:30:50;;;;;;;35.33;6.40;;;;;;;;;;6102311;19;20383;-71
2022/12/24 08:32:57;;;;;;;37.40;7.72;;;;;;;;;;6102168;19;20040;-69
2022/12/24 08:35:02;;;;;;;28.48;6.40;;;;;;;;;;6108391;19;20013;-69
2022/12/24 08:37:07;;;;;;;33.83;7.53;;;;;;;;;;6107659;19;20002;-69
2022/12/24 08:39:12;;;;;;;40.50;7.35;;;;;;;;;;6106716;19;20495;-70
2022/12/24 08:41:17;;;;;;;30.48;6.72;;;;;;;;;;6108351;19;20018;-69
2022/12/24 08:43:24;;;;;;;42.25;8.55;;;;;;;;;;6106739;19;20058;-69
2022/12/24 08:45:29;;;;;;;29.80;6.05;;;;;;;;;;6106919;19;20007;-70
2022/12/24 08:47:43;;;;;;;30.05;7.70;;;;;;;;;;6108571;19;20500;-69
2022/12/24 08:49:51;;;;;;;35.28;6.82;;;;;;;;;;6109423;19;20014;-70
2022/12/24 08:51:55;;;;;;;32.20;7.30;;;;;;;;;;6109113;19;20483;-70
2022/12/24 08:54:00;;;;;;;35.90;6.90;;;;;;;;;;6108081;19;20098;-70
2022/12/24 08:56:06;;;;;;;44.72;8.93;;;;;;;;;;6111495;19;20014;-70
2022/12/24 08:58:11;;;;;;;32.55;7.05;;;;;;;;;;6108050;19;20017;-70
2022/12/24 09:00:17;;;;;;;27.83;6.35;;;;;;;;;;6110156;19;20039;-69
2022/12/24 09:02:24;;;;;;;28.15;5.85;;;;;;;;;;6106985;19;20287;-69
2022/12/24 09:04:31;;;;;;;41.22;7.68;;;;;;;;;;6109771;19;20356;-70
2022/12/24 09:06:39;;;;;;;30.88;6.57;;;;;;;;;;6109247;19;20014;-70
2022/12/24 09:08:44;;;;;;;25.88;5.30;;;;;;;;;;6107578;19;20039;-70
2022/12/24 09:10:49;;;;;;;27.92;6.03;;;;;;;;;;6108046;19;20017;-71
2022/12/24 09:12:54;;;;;;;37.58;6.75;;;;;;;;;;6108162;19;20023;-70
2022/12/24 09:14:58;;;;;;;33.22;6.35;;;;;;;;;;6107994;19;20010;-70
2022/12/24 09:17:08;;;;;;;30.40;6.25;;;;;;;;;;6106902;19;20624;-70
2022/12/24 09:19:12;;;;;;;27.35;6.07;;;;;;;;;;6108621;19;20011;-70
2022/12/24 09:21:18;;;;;;;35.88;7.70;;;;;;;;;;6106960;19;20508;-70
2022/12/24 09:23:25;;;;;;;29.13;6.55;;;;;;;;;;6107297;19;20003;-71
2022/12/24 09:25:30;;;;;;;32.05;7.53;;;;;;;;;;6107226;19;20680;-71
2022/12/24 09:27:35;;;;;;;30.00;6.65;;;;;;;;;;6106506;19;20019;-71
2022/12/24 09:29:41;;;;;;;26.35;6.03;;;;;;;;;;6105905;19;20550;-70
2022/12/24 09:31:45;;;;;;;38.03;6.57;;;;;;;;;;6108837;19;20045;-70
2022/12/24 09:33:52;;;;;;;34.42;6.18;;;;;;;;;;6108268;19;20015;-70
2022/12/24 09:35:57;;;;;;;19.75;5.68;;;;;;;;;;6108430;19;20038;-70
2022/12/24 09:38:04;;;;;;;27.65;6.30;;;;;;;;;;6108769;19;20015;-70
2022/12/24 09:40:24;;;;;;;39.33;6.32;;;;;;;;;;6107468;19;20010;-70
2022/12/24 09:42:38;;;;;;;18.67;5.30;;;;;;;;;;6110088;19;20002;-72
2022/12/24 09:44:45;;;;;;;23.55;5.97;;;;;;;;;;6107491;19;20082;-70
2022/12/24 09:46:51;;;;;;;21.70;5.80;;;;;;;;;;6109640;19;20020;-70
2022/12/24 09:48:58;;;;;;;26.00;6.30;;;;;;;;;;6109586;19;20115;-70
2022/12/24 09:51:06;;;;;;;25.17;5.57;;;;;;;;;;6108195;19;20015;-70
2022/12/24 09:53:17;;;;;;;37.58;6.93;;;;;;;;;;6106114;19;20494;-70
2022/12/24 09:55:31;;;;;;;28.02;5.25;;;;;;;;;;6104739;19;20019;-72
2022/12/24 09:57:38;;;;;;;21.88;5.32;;;;;;;;;;6108242;19;20011;-72
2022/12/24 09:59:46;;;;;;;26.63;5.53;;;;;;;;;;6109769;19;20014;-72
2022/12/24 10:01:51;;;;;;;31.02;5.20;;;;;;;;;;6108710;19;20006;-72
2022/12/24 10:03:56;;;;;;;34.38;6.20;;;;;;;;;;6109876;19;20003;-70
2022/12/24 10:06:08;;;;;;;32.28;6.03;;;;;;;;;;6108272;19;20011;-70
2022/12/24 10:08:19;;;;;;;37.75;6.70;;;;;;;;;;6105708;19;20475;-70
2022/12/24 10:10:31;;;;;;;31.00;5.75;;;;;;;;;;6107871;19;20018;-70
2022/12/24 10:12:41;;;;;;;29.35;7.13;;;;;;;;;;6107908;19;20352;-70
2022/12/24 10:15:00;;;;;;;27.85;5.90;;;;;;;;;;6107436;19;20003;-70
2022/12/24 10:17:19;;;;;;;32.58;8.00;;;;;;;;;;6105922;19;20020;-70
2022/12/24 10:19:30;;;;;;;25.95;5.90;;;;;;;;;;6105885;19;20006;-72
2022/12/24 10:21:41;;;;;;;25.85;5.93;;;;;;;;;;6106302;19;20483;-71
2022/12/24 10:23:50;;;;;;;27.80;5.72;;;;;;;;;;6104568;19;20020;-68
2022/12/24 10:26:06;;;;;;;29.02;6.20;;;;;;;;;;6106070;19;20502;-69
2022/12/24 10:28:16;;;;;;;31.65;6.18;;;;;;;;;;6104091;19;20124;-70
2022/12/24 10:30:23;;;;;;;24.30;5.63;;;;;;;;;;6106490;19;20445;-71
2022/12/24 10:32:30;;;;;;;24.42;5.65;;;;;;;;;;6105896;19;20582;-72
2022/12/24 10:34:40;;;;;;;19.45;5.10;;;;;;;;;;6105691;19;20050;-72
2022/12/24 10:36:45;;;;;;;26.10;5.05;;;;;;;;;;6107226;19;20024;-70
2022/12/24 10:38:49;;;;;;;31.15;6.75;;;;;;;;;;6104398;19;20014;-71
2022/12/24 10:40:57;;;;;;;28.15;4.95;;;;;;;;;;6104698;19;20038;-71
2022/12/24 10:43:02;;;;;;;20.20;4.95;;;;;;;;;;6105035;19;20050;-71
2022/12/24 10:45:09;;;;;;;24.90;5.63;;;;;;;;;;6107115;19;20645;-71
2022/12/24 10:47:14;;;;;;;27.23;5.78;;;;;;;;;;6105331;19;20010;-71
2022/12/24 10:49:22;;;;;;;21.95;4.72;;;;;;;;;;6105161;19;20413;-71
2022/12/24 10:51:34;;;;;;;30.95;5.45;;;;;;;;;;6104444;19;20011;-72
2022/12/24 10:53:43;;;;;;;31.58;6.60;;;;;;;;;;6099531;19;20018;-71
2022/12/24 10:55:49;;;;;;;30.88;5.93;;;;;;;;;;6103070;19;20014;-71
2022/12/24 10:58:07;;;;;;;23.98;5.30;;;;;;;;;;6102408;19;20114;-71
2022/12/24 11:00:21;;;;;;;21.52;4.68;;;;;;;;;;6101274;19;20002;-72
2022/12/24 11:02:29;;;;;;;34.85;5.43;;;;;;;;;;6105398;19;20051;-71
2022/12/24 11:04:35;;;;;;;35.67;6.45;;;;;;;;;;6104898;19;20011;-70
2022/12/24 11:06:53;;;;;;;28.95;6.97;;;;;;;;;;6103205;19;20014;-70
2022/12/24 11:09:14;;;;;;;34.90;6.10;;;;;;;;;;6102845;19;20034;-70
2022/12/24 11:11:22;;;;;;;24.77;5.88;;;;;;;;;;6105258;19;20010;-70
2022/12/24 11:13:31;;;;;;;27.20;6.00;;;;;;;;;;6103766;19;20014;-70
2022/12/24 11:15:42;;;;;;;25.35;5.60;;;;;;;;;;6105168;19;20609;-70
2022/12/24 11:17:55;;;;;;;28.75;5.07;;;;;;;;;;6105984;19;20336;-70
2022/12/24 11:20:01;;;;;;;17.52;5.38;;;;;;;;;;6105198;19;20014;-71
2022/12/24 11:22:08;;;;;;;31.33;5.53;;;;;;;;;;6093478;19;20778;-70
2022/12/24 11:24:25;;;;;;;32.28;7.03;;;;;;;;;;6107047;19;20010;-71
2022/12/24 11:26:32;;;;;;;28.77;4.93;;;;;;;;;;6106101;19;20029;-70
2022/12/24 11:28:39;;;;;;;24.70;5.22;;;;;;;;;;6106519;19;20375;-70
2022/12/24 11:30:44;;;;;;;21.83;4.88;;;;;;;;;;6107521;19;20011;-70
2022/12/24 11:32:50;;;;;;;31.60;5.20;;;;;;;;;;6104418;19;20324;-70
2022/12/24 11:34:55;;;;;;;33.72;6.03;;;;;;;;;;6084736;19;20167;-70
2022/12/24 11:37:11;;;;;;;34.33;5.57;;;;;;;;;;6105503;19;20036;-70
2022/12/24 11:39:21;;;;;;;23.63;5.38;;;;;;;;;;6106429;19;20007;-71
2022/12/24 11:41:26;;;;;;;25.88;5.40;;;;;;;;;;6106296;19;20006;-70
2022/12/24 11:43:47;;;;;;;27.63;6.72;;;;;;;;;;6105794;19;20046;-70
2022/12/24 11:45:54;;;;;;;20.02;6.20;;;;;;;;;;6102912;19;20011;-70
2022/12/24 11:47:59;;;;;;;21.45;5.63;;;;;;;;;;6105211;19;20010;-71
2022/12/24 11:50:22;;;;;;;25.17;6.40;;;;;;;;;;6104870;19;20470;-70
2022/12/24 11:52:29;;;;;;;28.17;7.10;;;;;;;;;;6098915;19;20117;-71
2022/12/24 11:54:37;;;;;;;19.05;5.70;;;;;;;;;;6101599;19;20010;-70
2022/12/24 11:56:43;;;;;;;23.42;7.18;;;;;;;;;;6102442;19;20023;-71
2022/12/24 11:58:54;;;;;;;37.03;9.13;;;;;;;;;;6099939;19;20022;-69
2022/12/24 12:01:03;;;;;;;30.92;7.07;;;;;;;;;;6097988;19;20167;-71
2022/12/24 12:03:26;;;;;;;23.48;5.38;;;;;;;;;;6101368;19;20082;-70
2022/12/24 12:05:34;;;;;;;24.95;4.90;;;;;;;;;;6102685;19;20023;-71
2022/12/24 12:07:40;;;;;;;24.55;5.43;;;;;;;;;;6098450;19;20007;-71
2022/12/24 12:09:47;;;;;;;20.17;4.90;;;;;;;;;;6105199;19;20016;-70
2022/12/24 12:11:55;;;;;;;35.67;6.60;;;;;;;;;;6107138;19;20022;-71
2022/12/24 12:14:03;;;;;;;22.13;6.05;;;;;;;;;;6107824;19;20018;-71
2022/12/24 12:16:19;;;;;;;23.52;4.95;;;;;;;;;;6106027;19;20018;-71
2022/12/24 12:18:26;;;;;;;19.38;4.40;;;;;;;;;;6110025;19;20014;-70
2022/12/24 12:20:34;;;;;;;22.35;5.30;;;;;;;;;;6110634;19;20053;-71
2022/12/24 12:22:45;;;;;;;20.27;4.40;;;;;;;;;;6110480;19;20006;-71
2022/12/24 12:24:53;;;;;;;24.88;4.95;;;;;;;;;;6109221;19;20367;-71
2022/12/24 12:27:05;;;;;;;25.33;6.75;;;;;;;;;;6110657;19;20308;-71
2022/12/24 12:29:24;;;;;;;26.70;7.05;;;;;;;;;;6110416;19;20021;-70
2022/12/24 12:31:36;;;;;;;27.02;5.72;;;;;;;;;;6111086;19;20013;-70
2022/12/24 12:33:43;;;;;;;17.25;4.55;;;;;;;;;;6109966;19;20431;-70
2022/12/24 12:35:49;;;;;;;24.10;5.47;;;;;;;;;;6112308;19;20031;-70
2022/12/24 12:37:58;;;;;;;25.80;5.00;;;;;;;;;;6109240;19;20543;-70
2022/12/24 12:40:03;;;;;;;29.35;7.28;;;;;;;;;;6109633;19;20034;-70
2022/12/24 12:42:16;;;;;;;22.52;6.00;;;;;;;;;;6109125;19;20018;-71
2022/12/24 12:44:40;;;;;;;19.02;4.60;;;;;;;;;;6111408;19;20006;-71
2022/12/24 12:46:59;;;;;;;25.77;5.55;;;;;;;;;;6110586;19;20026;-71